Time;durP1;ratioP1;P1;durP2;ratioP2;P2;SDS_P1;SDS_P2;PMS_P1;PMS_P2;Temp;Humidity;BMP_temperature;BMP_pressure;BME280_temperature;BME280_humidity;BME280_pressure;Samples;Min_cycle;Max_cycle;Signal;HPM_P1;HPM_P2
2022/04/20 00:00:38;;;;;;;20.75;12.50;;;;;;;1.95;98.70;92737.53;5030151;28;20041;-79
2022/04/20 00:03:06;;;;;;;18.90;12.07;;;;;;;2.01;96.09;92738.63;5035422;28;20099;-79
2022/04/20 00:05:33;;;;;;;22.08;13.05;;;;;;;2.04;96.12;92742.56;5029828;28;20076;-79
2022/04/20 00:08:00;;;;;;;24.30;13.32;;;;;;;2.08;96.58;92739.53;5030423;28;20103;-78
2022/04/20 00:10:28;;;;;;;18.60;11.65;;;;;;;2.03;97.40;92741.78;5029655;28;20046;-78
2022/04/20 00:12:54;;;;;;;23.90;12.73;;;;;;;1.93;97.92;92724.28;5029535;28;20050;-78
2022/04/20 00:15:22;;;;;;;25.48;13.07;;;;;;;2.04;97.50;92745.88;5029856;28;20046;-78
2022/04/20 00:17:48;;;;;;;19.33;10.93;;;;;;;1.93;97.87;92738.66;5029838;28;20053;-78
2022/04/20 00:20:17;;;;;;;20.92;12.07;;;;;;;1.92;98.16;92739.63;5029573;28;20049;-77
2022/04/20 00:22:44;;;;;;;16.98;10.85;;;;;;;1.86;100.00;92744.41;5029443;28;20507;-78
2022/04/20 00:25:11;;;;;;;20.00;10.95;;;;;;;1.83;99.71;92738.91;5029626;28;20046;-77
2022/04/20 00:27:39;;;;;;;19.83;10.98;;;;;;;1.88;99.65;92736.66;5029537;28;20041;-77
2022/04/20 00:30:08;;;;;;;17.30;10.48;;;;;;;1.83;99.77;92731.28;5029491;28;20111;-77
2022/04/20 00:32:35;;;;;;;16.10;9.95;;;;;;;1.86;99.99;92733.50;5029788;28;20042;-77
2022/04/20 00:35:02;;;;;;;17.63;10.27;;;;;;;1.84;98.55;92713.41;5029445;28;20049;-78
2022/04/20 00:37:30;;;;;;;16.02;9.60;;;;;;;1.92;99.30;92727.75;5029591;28;20048;-77
2022/04/20 00:39:57;;;;;;;16.27;9.90;;;;;;;1.91;99.70;92725.41;5029266;28;20041;-78
2022/04/20 00:42:25;;;;;;;18.25;9.35;;;;;;;1.81;99.72;92721.31;5029912;28;20053;-78
2022/04/20 00:44:52;;;;;;;19.42;9.90;;;;;;;1.55;99.75;92683.66;5029173;28;20046;-78
2022/04/20 00:47:19;;;;;;;19.92;10.38;;;;;;;1.88;99.43;92731.59;5031383;28;20042;-78
2022/04/20 00:49:48;;;;;;;19.60;9.85;;;;;;;1.85;100.00;92731.94;5033621;28;20175;-77
2022/04/20 00:52:15;;;;;;;15.77;9.57;;;;;;;1.88;99.56;92729.06;5033323;28;20037;-77
2022/04/20 00:54:43;;;;;;;16.17;10.18;;;;;;;1.90;99.51;92721.28;5033367;28;20077;-77
2022/04/20 00:57:12;;;;;;;14.80;9.05;;;;;;;1.83;100.00;92731.28;5033376;28;20038;-78
2022/04/20 00:59:40;;;;;;;15.23;8.95;;;;;;;1.84;99.96;92732.88;5033395;28;20111;-78
2022/04/20 01:02:07;;;;;;;18.30;9.68;;;;;;;1.86;99.03;92730.97;5033427;28;20397;-78
2022/04/20 01:04:35;;;;;;;13.30;8.60;;;;;;;1.86;97.79;92733.50;5032518;28;20144;-78
2022/04/20 01:07:10;;;;;;;14.48;8.77;;;;;;;1.82;100.00;92734.78;5032857;28;20077;-79
2022/04/20 01:09:37;;;;;;;23.35;13.57;;;;;;;1.81;100.00;92739.06;5032760;28;20099;-78
2022/04/20 01:12:07;;;;;;;18.70;11.65;;;;;;;1.78;100.00;92736.06;5032437;28;20041;-80
2022/04/20 01:14:34;;;;;;;21.58;12.55;;;;;;;1.73;100.00;92732.28;5032774;28;20053;-78
2022/04/20 01:17:00;;;;;;;44.50;24.27;;;;;;;1.55;100.00;92729.22;5033278;28;20713;-78
2022/04/20 01:19:33;;;;;;;23.83;14.95;;;;;;;1.58;100.00;92726.38;5033004;28;20042;-78
2022/04/20 01:22:01;;;;;;;25.52;12.98;;;;;;;1.55;100.00;92724.16;5033218;28;20041;-77
2022/04/20 01:24:28;;;;;;;29.38;16.10;;;;;;;1.58;100.00;92728.91;5033177;28;20045;-78
2022/04/20 01:26:56;;;;;;;26.23;14.82;;;;;;;1.54;100.00;92725.13;5032900;28;20041;-77
2022/04/20 01:29:23;;;;;;;49.38;23.83;;;;;;;1.42;100.00;92734.81;5033331;28;20390;-77
2022/04/20 01:31:50;;;;;;;25.50;14.55;;;;;;;1.20;100.00;92697.44;5033227;28;20038;-77
2022/04/20 01:34:17;;;;;;;32.70;15.50;;;;;;;1.45;100.00;92737.03;5032777;28;20049;-78
2022/04/20 01:36:44;;;;;;;22.20;12.30;;;;;;;1.56;100.00;92741.72;5032721;28;20045;-78
2022/04/20 01:39:12;;;;;;;18.20;11.55;;;;;;;1.66;100.00;92749.13;5032982;28;20037;-78
2022/04/20 01:41:39;;;;;;;13.77;8.88;;;;;;;1.75;100.00;92744.03;5033178;28;20054;-78
2022/04/20 01:44:06;;;;;;;12.45;8.10;;;;;;;1.76;100.00;92748.91;5033291;28;20099;-77
2022/04/20 01:46:33;;;;;;;10.50;6.68;;;;;;;1.87;100.00;92752.81;5033395;28;20476;-77
2022/04/20 01:49:01;;;;;;;17.75;7.10;;;;;;;1.94;100.00;92755.47;5033094;28;20050;-77
2022/04/20 01:54:14;;;;;;;7.95;5.95;;;;;;;2.02;100.00;92757.13;5032849;28;20104;-79
2022/04/20 01:56:41;;;;;;;10.88;6.18;;;;;;;2.04;100.00;92758.53;5032761;28;20826;-79
2022/04/20 01:59:09;;;;;;;15.38;7.57;;;;;;;2.07;100.00;92755.69;5032419;28;20038;-79
2022/04/20 02:04:20;;;;;;;12.63;7.25;;;;;;;2.07;100.00;92745.56;5032037;28;20691;-78
2022/04/20 02:06:46;;;;;;;9.85;6.60;;;;;;;2.18;100.00;92756.25;5032601;28;20042;-78
2022/04/20 02:09:15;;;;;;;10.65;7.45;;;;;;;2.13;100.00;92751.69;5031987;28;20054;-79
2022/04/20 02:11:42;;;;;;;11.60;7.22;;;;;;;2.19;100.00;92750.22;5032073;28;20053;-79
2022/04/20 02:14:08;;;;;;;11.68;7.28;;;;;;;2.19;100.00;92753.56;5032210;28;20057;-78
2022/04/20 02:16:36;;;;;;;14.07;8.05;;;;;;;2.23;100.00;92746.41;5032089;28;20087;-78
2022/04/20 02:19:03;;;;;;;13.02;7.50;;;;;;;2.26;100.00;92749.38;5031496;28;20089;-78
2022/04/20 02:21:30;;;;;;;11.10;8.20;;;;;;;2.25;100.00;92744.47;5032034;28;20432;-79
2022/04/20 02:23:57;;;;;;;13.68;8.32;;;;;;;2.27;100.00;92740.03;5031729;28;20045;-77
2022/04/20 02:26:25;;;;;;;11.73;8.13;;;;;;;2.22;100.00;92727.09;5031888;28;20107;-77
2022/04/20 02:28:52;;;;;;;11.00;8.23;;;;;;;2.27;100.00;92742.56;5031465;28;20482;-79
2022/04/20 02:31:19;;;;;;;12.23;8.35;;;;;;;2.26;100.00;92733.38;5031626;28;20053;-79
2022/04/20 02:33:46;;;;;;;15.38;8.45;;;;;;;2.34;100.00;92745.19;5031409;28;20052;-79
2022/04/20 02:36:13;;;;;;;10.80;8.88;;;;;;;2.27;100.00;92725.59;5031479;28;20060;-79
2022/04/20 02:38:40;;;;;;;10.20;8.13;;;;;;;2.35;100.00;92741.69;5031452;28;20049;-79
2022/04/20 02:41:07;;;;;;;14.35;9.23;;;;;;;2.19;100.00;92712.22;5031846;28;20045;-80
2022/04/20 02:43:36;;;;;;;12.65;9.55;;;;;;;2.38;100.00;92743.91;5031810;28;20053;-80
2022/04/20 02:46:03;;;;;;;12.95;9.55;;;;;;;2.39;100.00;92740.41;5031107;28;20056;-79
2022/04/20 02:48:29;;;;;;;11.68;9.23;;;;;;;2.25;100.00;92714.88;5031259;28;20041;-80
2022/04/20 02:50:56;;;;;;;14.00;9.60;;;;;;;2.27;100.00;92719.75;5031127;28;20049;-80
2022/04/20 02:53:23;;;;;;;19.52;12.90;;;;;;;2.44;100.00;92737.38;5031330;28;20041;-80
2022/04/20 02:55:50;;;;;;;15.85;11.02;;;;;;;2.45;100.00;92749.09;5031146;28;20052;-80
2022/04/20 02:58:17;;;;;;;15.02;10.60;;;;;;;2.43;100.00;92738.31;5031282;28;20386;-80
2022/04/20 03:00:46;;;;;;;15.05;10.18;;;;;;;2.52;100.00;92747.44;5030979;28;20401;-79
2022/04/20 03:03:13;;;;;;;12.10;9.77;;;;;;;2.59;100.00;92748.31;5031435;28;20041;-80
2022/04/20 03:05:40;;;;;;;12.60;10.02;;;;;;;2.59;100.00;92747.53;5030758;28;20103;-79
2022/04/20 03:08:07;;;;;;;12.98;10.95;;;;;;;2.63;100.00;92753.81;5030878;28;20045;-80
2022/04/20 03:10:34;;;;;;;11.68;9.93;;;;;;;2.65;100.00;92755.22;5030072;28;20045;-79
2022/04/20 03:13:00;;;;;;;14.95;11.25;;;;;;;2.67;100.00;92752.53;5030601;28;20045;-79
2022/04/20 03:15:27;;;;;;;12.88;10.23;;;;;;;2.71;100.00;92751.22;5030699;28;20046;-80
2022/04/20 03:17:57;;;;;;;12.05;9.98;;;;;;;2.72;100.00;92749.50;5030604;28;20141;-80
2022/04/20 03:20:24;;;;;;;13.05;10.70;;;;;;;2.71;100.00;92745.38;5030358;28;20046;-80
2022/04/20 03:22:51;;;;;;;12.85;10.48;;;;;;;2.71;100.00;92740.28;5030603;28;20052;-80
2022/04/20 03:25:18;;;;;;;13.10;10.00;;;;;;;2.73;100.00;92723.94;5030889;28;20064;-81
2022/04/20 03:27:45;;;;;;;12.70;10.02;;;;;;;2.63;100.00;92708.19;5030687;28;20041;-81
2022/04/20 03:30:14;;;;;;;12.75;10.00;;;;;;;2.70;100.00;92714.16;5030473;28;20504;-80
2022/04/20 03:32:41;;;;;;;16.58;10.35;;;;;;;2.72;100.00;92716.53;5030521;28;20551;-80
2022/04/20 03:35:10;;;;;;;15.02;10.00;;;;;;;2.59;100.00;92692.53;5030355;28;20045;-79
2022/04/20 03:37:37;;;;;;;13.63;10.70;;;;;;;2.75;100.00;92716.16;5030279;28;20037;-79
2022/04/20 03:40:05;;;;;;;14.45;10.55;;;;;;;2.77;100.00;92715.03;5030110;28;20037;-80
2022/04/20 03:42:32;;;;;;;19.00;11.35;;;;;;;2.80;100.00;92718.97;5030175;28;20511;-79
2022/04/20 03:44:59;;;;;;;16.52;11.35;;;;;;;2.82;100.00;92706.88;5030155;28;20480;-80
2022/04/20 03:47:26;;;;;;;17.50;10.48;;;;;;;2.84;100.00;92710.06;5030285;28;20048;-81
2022/04/20 03:49:52;;;;;;;13.00;10.55;;;;;;;2.87;100.00;92711.47;5030226;28;20054;-81
2022/04/20 03:52:21;;;;;;;18.08;10.90;;;;;;;2.93;100.00;92703.91;5030019;28;20060;-80
2022/04/20 03:54:47;;;;;;;16.75;10.38;;;;;;;2.94;100.00;92702.19;5029914;28;20053;-79
2022/04/20 03:57:14;;;;;;;17.00;11.00;;;;;;;3.01;100.00;92703.03;5030184;28;20046;-80
2022/04/20 03:59:41;;;;;;;13.32;10.82;;;;;;;3.00;100.00;92698.16;5030055;28;20049;-79
2022/04/20 04:02:08;;;;;;;14.10;10.07;;;;;;;3.07;100.00;92699.78;5030269;28;20045;-78
2022/04/20 04:04:35;;;;;;;15.50;10.82;;;;;;;3.09;100.00;92696.31;5030401;28;20053;-79
2022/04/20 04:07:02;;;;;;;16.35;11.95;;;;;;;3.18;100.00;92696.03;5029755;28;20610;-80
2022/04/20 04:09:30;;;;;;;17.50;12.57;;;;;;;3.24;100.00;92691.22;5029657;28;20052;-79
2022/04/20 04:11:57;;;;;;;19.05;13.05;;;;;;;3.27;100.00;92691.66;5029831;28;20052;-79
2022/04/20 04:14:24;;;;;;;15.50;12.27;;;;;;;3.30;100.00;92680.34;5029503;28;20045;-79
2022/04/20 04:16:51;;;;;;;14.38;11.00;;;;;;;3.24;100.00;92665.84;5029661;28;20045;-79
2022/04/20 04:19:19;;;;;;;14.75;11.13;;;;;;;3.39;100.00;92676.75;5029806;28;20072;-79
2022/04/20 04:21:46;;;;;;;15.63;11.18;;;;;;;3.41;100.00;92674.81;5028914;28;20045;-78
2022/04/20 04:24:34;;;;;;;22.08;10.48;;;;;;;3.32;100.00;92658.09;5029515;28;20045;-79
2022/04/20 04:27:02;;;;;;;15.32;10.52;;;;;;;3.47;100.00;92668.22;5029355;28;20045;-79
2022/04/20 04:29:29;;;;;;;13.40;10.00;;;;;;;3.46;100.00;92664.13;5029480;28;20049;-79
2022/04/20 04:31:56;;;;;;;12.10;9.13;;;;;;;3.32;100.00;92653.84;5029708;28;20567;-79
2022/04/20 04:34:23;;;;;;;12.98;9.77;;;;;;;3.56;100.00;92686.69;5029231;28;20084;-78
2022/04/20 04:36:51;;;;;;;15.07;9.88;;;;;;;3.65;100.00;92695.00;5029433;28;20045;-79
2022/04/20 04:39:21;;;;;;;17.05;10.73;;;;;;;3.59;100.00;92696.50;5027036;28;20064;-78
2022/04/20 04:41:48;;;;;;;15.93;10.75;;;;;;;3.75;100.00;92708.16;5027669;28;20053;-79
2022/04/20 04:44:17;;;;;;;14.88;11.60;;;;;;;3.81;100.00;92706.69;5029217;28;20041;-79
2022/04/20 04:49:28;;;;;;;16.00;11.02;;;;;;;3.92;100.00;92708.75;5029453;28;20143;-79
2022/04/20 04:51:56;;;;;;;15.10;10.63;;;;;;;3.95;100.00;92707.59;5029618;28;20095;-79
2022/04/20 04:54:23;;;;;;;14.65;9.88;;;;;;;3.96;100.00;92704.88;5029269;28;20049;-80
2022/04/20 04:56:50;;;;;;;13.77;10.00;;;;;;;3.99;100.00;92707.03;5029549;28;20400;-81
2022/04/20 04:59:19;;;;;;;12.15;8.75;;;;;;;4.01;100.00;92710.19;5029346;28;20481;-80
2022/04/20 05:01:46;;;;;;;11.73;9.20;;;;;;;4.04;100.00;92711.59;5029213;28;20473;-80
2022/04/20 05:04:13;;;;;;;11.82;9.68;;;;;;;4.08;100.00;92720.41;5028795;28;20050;-80
2022/04/20 05:06:41;;;;;;;13.65;9.32;;;;;;;4.07;100.00;92721.38;5028982;28;20054;-80
2022/04/20 05:09:08;;;;;;;12.73;9.32;;;;;;;4.03;100.00;92709.22;5029035;28;20503;-80
2022/04/20 05:11:35;;;;;;;13.30;10.80;;;;;;;3.88;100.00;92684.66;5029199;28;20056;-81
2022/04/20 05:14:02;;;;;;;16.52;10.95;;;;;;;4.23;100.00;92745.78;5029147;28;20060;-81
2022/04/20 05:16:30;;;;;;;14.65;10.52;;;;;;;4.24;100.00;92756.72;5029023;28;20481;-81
2022/04/20 05:18:57;;;;;;;14.45;11.73;;;;;;;4.27;100.00;92762.22;5028801;28;20499;-81
2022/04/20 05:21:24;;;;;;;21.20;13.00;;;;;;;4.17;100.00;92738.88;5029063;28;20124;-81
2022/04/20 05:23:51;;;;;;;17.25;11.43;;;;;;;4.27;100.00;92753.84;5029069;28;20356;-80
2022/04/20 05:26:17;;;;;;;17.75;13.55;;;;;;;4.22;100.00;92748.50;5029093;28;20046;-80
2022/04/20 05:28:44;;;;;;;19.25;12.52;;;;;;;4.33;100.00;92758.19;5028758;28;20046;-82
2022/04/20 05:31:11;;;;;;;16.10;11.52;;;;;;;4.28;100.00;92758.75;5028658;28;20049;-81
2022/04/20 05:33:39;;;;;;;17.88;13.48;;;;;;;4.26;100.00;92770.06;5031033;28;20504;-81
2022/04/20 05:36:06;;;;;;;15.23;11.68;;;;;;;4.17;100.00;92768.59;5032431;28;20048;-81
2022/04/20 05:41:40;;;;;;;19.63;14.30;;;;;;;4.12;100.00;92779.31;5002649;28;20701;-82
2022/04/20 05:44:08;;;;;;;18.15;13.88;;;;;;;4.08;100.00;92781.41;5012751;28;20077;-82
2022/04/20 05:46:35;;;;;;;13.95;10.75;;;;;;;3.79;100.00;92747.50;5012478;28;20108;-82
2022/04/20 05:49:04;;;;;;;38.00;24.85;;;;;;;4.05;100.00;92789.41;5013156;28;20969;-82
2022/04/20 05:51:31;;;;;;;35.80;27.77;;;;;;;3.85;100.00;92766.34;5013216;28;20049;-82
2022/04/20 05:53:58;;;;;;;34.88;28.40;;;;;;;3.98;100.00;92802.03;5012610;28;20069;-81
2022/04/20 05:56:25;;;;;;;26.88;18.40;;;;;;;3.95;100.00;92788.91;5012315;28;20473;-81
2022/04/20 05:58:52;;;;;;;18.15;12.93;;;;;;;3.88;100.00;92786.28;5012584;28;20042;-81
2022/04/20 06:01:22;;;;;;;13.82;9.95;;;;;;;3.69;100.00;92780.00;5012573;28;20082;-81
2022/04/20 06:03:49;;;;;;;17.33;12.93;;;;;;;3.80;100.00;92802.41;5012525;28;20050;-81
2022/04/20 06:06:18;;;;;;;16.48;13.77;;;;;;;3.55;100.00;92762.09;5012219;28;20048;-81
2022/04/20 06:08:45;;;;;;;13.85;11.70;;;;;;;3.74;100.00;92787.88;5011976;28;20038;-81
2022/04/20 06:11:12;;;;;;;16.08;12.90;;;;;;;3.68;100.00;92773.38;5012473;28;20046;-82
2022/04/20 06:13:39;;;;;;;13.55;9.68;;;;;;;3.53;100.00;92766.56;5012414;28;20892;-81
2022/04/20 06:16:07;;;;;;;12.20;9.52;;;;;;;3.65;100.00;92782.13;5012257;28;20049;-81
2022/04/20 06:18:34;;;;;;;16.33;12.68;;;;;;;3.59;100.00;92763.31;5012900;28;20055;-81
2022/04/20 06:21:01;;;;;;;13.27;11.88;;;;;;;3.58;100.00;92773.66;5012344;28;20061;-81
2022/04/20 06:23:30;;;;;;;17.42;11.98;;;;;;;3.56;100.00;92767.97;5012022;28;20041;-81
2022/04/20 06:25:57;;;;;;;15.75;10.55;;;;;;;3.29;100.00;92729.56;5012285;28;20079;-81
2022/04/20 06:28:25;;;;;;;11.88;10.00;;;;;;;3.32;100.00;92752.84;5012024;28;20046;-82
2022/04/20 06:30:53;;;;;;;16.52;13.70;;;;;;;3.38;100.00;92761.47;5012280;28;20485;-82
2022/04/20 06:33:21;;;;;;;21.90;14.95;;;;;;;3.40;100.00;92763.84;5012247;28;20049;-82
2022/04/20 06:35:49;;;;;;;23.25;17.30;;;;;;;3.12;100.00;92716.25;5011934;28;20069;-82
2022/04/20 06:38:16;;;;;;;17.98;13.10;;;;;;;3.43;100.00;92764.28;5012526;28;20052;-82
2022/04/20 06:40:45;;;;;;;17.73;13.02;;;;;;;3.38;100.00;92750.56;5012245;28;20448;-82
2022/04/20 06:43:12;;;;;;;17.42;11.60;;;;;;;3.50;100.00;92774.53;5012434;28;20057;-82
2022/04/20 06:45:39;;;;;;;12.90;10.98;;;;;;;3.30;100.00;92728.59;5010877;28;20050;-82
2022/04/20 06:48:06;;;;;;;14.30;12.00;;;;;;;3.51;100.00;92755.00;5011665;28;20042;-82
2022/04/20 06:50:33;;;;;;;12.27;10.32;;;;;;;3.48;100.00;92751.84;5011336;28;20045;-82
2022/04/20 06:58:38;;;;;;;12.23;9.13;;;;;;;3.29;100.00;92737.94;5011513;28;20048;-81
2022/04/20 07:01:07;;;;;;;13.95;10.35;;;;;;;3.14;100.00;92724.50;5011160;28;20543;-81
2022/04/20 07:03:34;;;;;;;24.35;14.95;;;;;;;3.13;100.00;92731.31;5011494;28;20068;-81
2022/04/20 07:06:01;;;;;;;43.08;25.48;;;;;;;3.11;100.00;92735.00;5010905;28;20050;-81
2022/04/20 07:08:29;;;;;;;34.90;23.70;;;;;;;3.11;100.00;92740.06;5011392;28;20157;-81
2022/04/20 07:10:57;;;;;;;27.13;19.00;;;;;;;3.05;100.00;92726.31;5011070;28;20042;-81
2022/04/20 07:13:24;;;;;;;24.33;17.77;;;;;;;3.06;100.00;92721.06;5011226;28;20049;-81
2022/04/20 07:15:52;;;;;;;19.52;13.35;;;;;;;3.02;100.00;92716.53;5008511;28;20481;-81
2022/04/20 07:18:18;;;;;;;15.00;11.23;;;;;;;3.25;100.00;92748.63;5014595;28;20052;-81
2022/04/20 07:20:46;;;;;;;13.25;10.40;;;;;;;3.32;100.00;92741.88;5010115;28;20060;-81
2022/04/20 07:23:13;;;;;;;12.88;10.77;;;;;;;3.30;100.00;92731.13;5011139;28;20042;-81
2022/04/20 07:25:40;;;;;;;13.40;9.98;;;;;;;3.44;100.00;92750.66;5010740;28;20046;-81
2022/04/20 07:28:09;;;;;;;11.73;8.95;;;;;;;3.42;100.00;92732.25;5011087;28;20046;-81
2022/04/20 07:30:36;;;;;;;10.70;8.85;;;;;;;3.52;100.00;92743.88;5010468;28;20048;-81
2022/04/20 07:33:04;;;;;;;12.35;9.05;;;;;;;3.57;100.00;92749.22;5010413;28;20049;-81
2022/04/20 07:35:31;;;;;;;13.60;11.00;;;;;;;3.59;100.00;92739.66;5010782;28;20050;-80
2022/04/20 07:37:58;;;;;;;17.27;12.88;;;;;;;3.56;100.00;92724.78;5010771;28;20464;-80
2022/04/20 07:40:25;;;;;;;16.08;10.18;;;;;;;3.67;100.00;92721.78;5010645;28;20057;-80
2022/04/20 07:42:54;;;;;;;14.07;10.85;;;;;;;3.85;100.00;92739.16;5010751;28;20050;-80
2022/04/20 07:45:25;;;;;;;17.23;13.18;;;;;;;3.92;100.00;92743.50;5010393;28;20100;-80
2022/04/20 07:47:54;;;;;;;19.48;13.52;;;;;;;3.83;100.00;92733.47;5010354;28;20092;-80
2022/04/20 07:50:23;;;;;;;12.50;8.88;;;;;;;3.87;100.00;92742.31;5010167;28;20046;-79
2022/04/20 07:52:53;;;;;;;18.20;11.30;;;;;;;3.65;100.00;92705.16;5010620;28;20132;-79
2022/04/20 07:55:22;;;;;;;24.85;14.23;;;;;;;3.96;100.00;92742.19;5010385;28;20050;-79
2022/04/20 07:57:49;;;;;;;18.45;13.30;;;;;;;4.05;100.00;92732.69;5010615;28;20052;-80
2022/04/20 08:00:17;;;;;;;17.90;11.77;;;;;;;4.14;100.00;92724.00;5010065;28;20046;-80
2022/04/20 08:02:46;;;;;;;15.73;11.70;;;;;;;4.23;100.00;92729.75;5010337;28;20042;-80
2022/04/20 08:05:15;;;;;;;12.63;9.60;;;;;;;3.98;100.00;92664.81;5009891;28;20046;-80
2022/04/20 08:07:43;;;;;;;11.30;8.95;;;;;;;4.33;100.00;92717.50;5009888;28;20050;-80
2022/04/20 08:10:11;;;;;;;15.85;10.98;;;;;;;4.33;100.00;92699.72;5010075;28;20052;-80
2022/04/20 08:12:39;;;;;;;13.32;9.48;;;;;;;4.47;100.00;92710.78;5010565;28;20057;-80
2022/04/20 08:15:07;;;;;;;13.60;9.93;;;;;;;4.42;100.00;92695.28;5010344;28;20042;-80
2022/04/20 08:17:35;;;;;;;24.95;15.65;;;;;;;4.54;100.00;92693.03;5009862;28;20141;-81
2022/04/20 08:20:04;;;;;;;17.73;12.02;;;;;;;4.54;100.00;92693.03;5010103;28;20056;-80
2022/04/20 08:22:31;;;;;;;11.15;8.98;;;;;;;4.46;100.00;92681.22;5009983;28;20489;-80
2022/04/20 08:25:02;;;;;;;9.50;8.38;;;;;;;4.44;100.00;92672.97;5009729;28;20049;-79
2022/04/20 08:27:30;;;;;;;12.55;10.00;;;;;;;4.52;100.00;92684.78;5010114;28;20050;-80
2022/04/20 08:29:57;;;;;;;11.57;8.77;;;;;;;4.49;100.00;92688.47;5010048;28;20092;-80
2022/04/20 08:32:24;;;;;;;11.73;8.73;;;;;;;4.42;100.00;92687.66;5009576;28;20046;-79
2022/04/20 08:34:51;;;;;;;9.60;8.07;;;;;;;4.50;100.00;92681.63;5010036;28;20128;-79
2022/04/20 08:37:20;;;;;;;11.82;9.95;;;;;;;4.26;100.00;92637.88;5009518;28;20742;-80
2022/04/20 08:39:47;;;;;;;15.82;11.25;;;;;;;4.55;100.00;92667.38;5009289;28;20409;-79
2022/04/20 08:42:17;;;;;;;14.57;10.43;;;;;;;4.62;100.00;92664.88;5009555;28;20440;-79
2022/04/20 08:44:49;;;;;;;12.35;10.18;;;;;;;4.63;100.00;92643.56;5009352;28;20053;-79
2022/04/20 08:47:20;;;;;;;13.38;10.18;;;;;;;4.75;100.00;92651.47;5009867;28;20041;-79
2022/04/20 08:49:49;;;;;;;10.90;9.35;;;;;;;4.69;100.00;92639.50;5009719;28;20049;-79
2022/04/20 08:55:04;;;;;;;14.40;10.48;;;;;;;4.94;100.00;92661.94;5009297;28;20091;-79
2022/04/20 08:57:33;;;;;;;18.25;12.57;;;;;;;5.01;100.00;92659.41;5009552;28;20431;-79
2022/04/20 09:00:01;;;;;;;22.05;13.90;;;;;;;4.93;100.00;92638.25;5009599;28;20046;-79
2022/04/20 09:02:29;;;;;;;23.13;15.73;;;;;;;5.17;100.00;92651.47;5009883;28;20106;-79
2022/04/20 09:04:56;;;;;;;24.20;17.17;;;;;;;5.27;100.00;92647.78;5009562;28;20141;-79
2022/04/20 09:07:24;;;;;;;22.85;16.45;;;;;;;5.33;100.00;92640.16;5006490;28;20105;-79
2022/04/20 09:09:51;;;;;;;24.25;16.90;;;;;;;5.41;100.00;92631.53;5013202;28;20042;-79
2022/04/20 09:12:22;;;;;;;19.98;14.43;;;;;;;5.41;100.00;92625.69;5013722;28;20038;-78
2022/04/20 09:14:51;;;;;;;16.80;12.70;;;;;;;5.51;100.00;92625.31;5013734;28;20564;-79
2022/04/20 09:17:19;;;;;;;11.88;9.98;;;;;;;5.51;100.00;92613.34;5013145;28;20503;-79
2022/04/20 09:19:48;;;;;;;12.05;10.65;;;;;;;5.26;100.00;92570.59;5013343;28;20042;-79
2022/04/20 09:22:22;;;;;;;14.20;9.35;;;;;;;5.23;100.00;92560.78;5013107;28;20137;-78
2022/04/20 09:25:08;;;;;;;20.77;15.63;;;;;;;5.47;100.00;92618.03;5013230;28;20413;-79
2022/04/20 09:27:39;;;;;;;13.88;12.25;;;;;;;5.36;100.00;92593.13;5013232;28;20038;-78
2022/04/20 09:30:11;;;;;;;13.00;10.98;;;;;;;5.29;100.00;92575.31;5013130;28;20046;-78
2022/04/20 09:32:39;;;;;;;13.25;11.02;;;;;;;5.48;100.00;92595.91;5012786;28;20046;-79
2022/04/20 09:35:08;;;;;;;19.60;14.73;;;;;;;5.58;100.00;92603.16;5012839;28;20501;-79
2022/04/20 09:37:37;;;;;;;20.67;15.38;;;;;;;5.61;100.00;92590.81;5012826;28;20455;-79
2022/04/20 09:40:06;;;;;;;21.77;14.35;;;;;;;5.67;100.00;92586.72;5012722;28;20057;-78
2022/04/20 09:42:34;;;;;;;22.13;15.10;;;;;;;5.69;100.00;92572.03;5012642;28;20042;-79
2022/04/20 09:45:04;;;;;;;20.48;13.32;;;;;;;5.75;100.00;92583.22;5012681;28;20046;-79
2022/04/20 09:50:23;;;;;;;19.05;13.18;;;;;;;5.69;100.00;92571.25;5012597;28;20632;-79
2022/04/20 09:52:52;;;;;;;17.88;13.45;;;;;;;5.81;100.00;92582.44;5012777;28;20042;-79
2022/04/20 09:55:28;;;;;;;13.82;11.43;;;;;;;5.88;100.00;92590.84;5012700;28;20041;-79
2022/04/20 09:58:10;;;;;;;13.07;10.48;;;;;;;5.93;100.00;92589.50;5012448;28;20042;-79
2022/04/20 10:00:43;;;;;;;13.65;9.70;;;;;;;5.97;100.00;92598.31;5012125;28;20077;-79
2022/04/20 10:03:10;;;;;;;14.25;11.07;;;;;;;6.02;100.00;92601.06;5012592;28;20041;-80
2022/04/20 10:05:38;;;;;;;16.65;11.40;;;;;;;6.06;100.00;92583.63;5012181;28;20065;-79
2022/04/20 10:08:05;;;;;;;13.05;11.15;;;;;;;5.84;100.00;92559.09;5012355;28;20095;-79
2022/04/20 10:10:33;;;;;;;13.77;11.05;;;;;;;6.07;100.00;92582.66;5012106;28;20045;-78
2022/04/20 10:13:04;;;;;;;14.60;11.88;;;;;;;6.03;100.00;92563.63;5012058;28;20068;-79
2022/04/20 10:18:20;;;;;;;14.60;10.70;;;;;;;6.03;100.00;92558.53;5012160;28;20073;-79
2022/04/20 10:20:55;;;;;;;16.35;11.40;;;;;;;6.23;100.00;92584.78;5010974;28;20060;-79
2022/04/20 10:23:24;;;;;;;12.57;10.20;;;;;;;6.04;100.00;92532.84;5010895;28;20125;-79
2022/04/20 10:25:52;;;;;;;13.18;10.35;;;;;;;6.36;100.00;92560.25;5011011;28;20436;-79
2022/04/20 10:28:29;;;;;;;15.05;11.07;;;;;;;6.30;100.00;92561.03;5011286;28;20041;-79
2022/04/20 10:31:18;;;;;;;14.10;11.07;;;;;;;6.44;100.00;92559.25;5007943;28;20096;-79
2022/04/20 10:33:47;;;;;;;15.70;11.55;;;;;;;6.50;100.00;92545.69;5008485;28;20057;-79
2022/04/20 10:36:17;;;;;;;16.92;13.00;;;;;;;6.61;100.00;92545.06;5010215;28;20556;-79
2022/04/20 10:38:45;;;;;;;13.23;9.82;;;;;;;6.45;100.00;92515.69;5010128;28;20077;-79
2022/04/20 10:41:13;;;;;;;15.98;12.52;;;;;;;6.63;100.00;92529.56;5010435;28;20045;-79
2022/04/20 10:43:42;;;;;;;15.10;11.45;;;;;;;6.74;100.00;92540.91;5010055;28;20042;-79
2022/04/20 10:46:14;;;;;;;13.63;10.00;;;;;;;6.80;100.00;92534.97;5010929;28;20049;-79
2022/04/20 10:48:57;;;;;;;12.82;11.05;;;;;;;6.71;100.00;92521.66;5009332;28;20046;-79
2022/04/20 10:51:35;;;;;;;16.67;12.65;;;;;;;6.84;100.00;92541.25;5011034;28;20048;-79
2022/04/20 10:54:24;;;;;;;26.35;17.30;;;;;;;6.63;100.00;92524.44;5010501;28;20060;-79
2022/04/20 10:57:06;;;;;;;23.30;17.42;;;;;;;6.28;100.00;92516.13;5010391;28;20504;-80
2022/04/20 10:59:33;;;;;;;22.27;17.65;;;;;;;6.04;100.00;92514.19;5009728;28;20077;-79
2022/04/20 11:02:07;;;;;;;21.38;16.67;;;;;;;6.07;100.00;92514.56;5009914;28;20046;-79
2022/04/20 11:04:39;;;;;;;22.05;18.10;;;;;;;5.78;100.00;92526.75;5010451;28;20164;-79
2022/04/20 11:07:24;;;;;;;25.13;21.15;;;;;;;5.32;100.00;92518.88;5010147;28;20496;-79
2022/04/20 11:10:02;;;;;;;30.48;24.33;;;;;;;5.33;100.00;92524.78;5010494;28;20041;-79
2022/04/20 11:18:40;;;;;;;23.20;17.50;;;;;;;4.41;100.00;92533.50;5001413;28;20137;-80
2022/04/20 11:21:19;;;;;;;25.70;19.60;;;;;;;4.30;100.00;92539.13;5001784;28;20478;-80
2022/04/20 11:23:55;;;;;;;25.05;18.90;;;;;;;4.18;100.00;92542.19;4993079;28;20109;-80
2022/04/20 11:26:24;;;;;;;23.67;18.73;;;;;;;4.24;100.00;92530.47;5009317;28;20038;-80
2022/04/20 11:28:52;;;;;;;30.00;22.33;;;;;;;4.22;100.00;92530.66;5009799;28;20046;-81
2022/04/20 11:31:20;;;;;;;25.15;19.98;;;;;;;4.18;100.00;92529.47;5009760;28;20370;-81
2022/04/20 11:33:48;;;;;;;25.83;19.33;;;;;;;4.10;100.00;92529.59;5008948;28;20058;-81
2022/04/20 11:36:17;;;;;;;28.95;21.80;;;;;;;4.34;100.00;92540.28;5009978;28;20050;-81
2022/04/20 11:38:46;;;;;;;35.13;25.05;;;;;;;4.50;100.00;92539.97;5004599;28;20393;-82
2022/04/20 11:41:17;;;;;;;30.58;23.95;;;;;;;4.49;100.00;92522.38;5006215;28;20865;-81
2022/04/20 11:43:45;;;;;;;23.25;18.80;;;;;;;4.48;100.00;92520.78;5007706;28;20052;-81
2022/04/20 11:46:11;;;;;;;27.33;21.33;;;;;;;4.74;100.00;92549.88;5009316;28;20096;-81
2022/04/20 11:48:48;;;;;;;25.05;19.25;;;;;;;4.63;100.00;92549.44;5010850;28;20504;-81
2022/04/20 11:51:23;;;;;;;23.63;18.35;;;;;;;4.43;100.00;92539.16;5011418;28;20068;-80
2022/04/20 11:53:50;;;;;;;30.70;20.65;;;;;;;4.31;100.00;92551.66;5011011;28;20042;-80
2022/04/20 11:56:17;;;;;;;34.25;23.15;;;;;;;4.11;100.00;92549.75;5009944;28;20057;-80